createdAt,value
2023-03-08T00:01:02.988Z,22.48
2023-03-08T00:03:29.398Z,22.67
2023-03-08T00:05:55.805Z,19.88
2023-03-08T00:08:22.265Z,21.45
2023-03-08T00:10:48.668Z,21.48
2023-03-08T00:13:15.049Z,23.20
2023-03-08T00:15:41.494Z,19.60
2023-03-08T00:18:07.973Z,19.90
2023-03-08T00:20:34.422Z,21.15
2023-03-08T00:23:00.832Z,19.98
2023-03-08T00:25:27.270Z,21.55
2023-03-08T00:27:53.672Z,22.20
2023-03-08T00:30:21.321Z,17.77
2023-03-08T00:32:47.774Z,22.70
2023-03-08T00:35:14.620Z,20.75
2023-03-08T00:37:41.069Z,19.20
2023-03-08T00:40:08.250Z,19.55
2023-03-08T00:42:34.820Z,23.58
2023-03-08T00:45:01.240Z,20.00
2023-03-08T00:47:27.730Z,21.33
2023-03-08T00:49:54.363Z,20.92
2023-03-08T00:52:20.815Z,17.25
2023-03-08T00:54:47.270Z,22.10
2023-03-08T00:57:13.645Z,21.33
2023-03-08T00:59:40.041Z,22.10
2023-03-08T01:02:06.737Z,21.42
2023-03-08T01:04:33.937Z,17.17
2023-03-08T01:07:01.341Z,22.15
2023-03-08T01:09:28.076Z,20.35
2023-03-08T01:11:54.443Z,28.65
2023-03-08T01:14:20.820Z,20.05
2023-03-08T01:16:47.433Z,22.25
2023-03-08T01:19:13.856Z,21.63
2023-03-08T01:21:41.651Z,20.80
2023-03-08T01:24:08.226Z,20.77
2023-03-08T01:26:34.994Z,20.25
2023-03-08T01:29:01.427Z,21.45
2023-03-08T01:31:30.086Z,21.50
2023-03-08T01:33:58.126Z,21.88
2023-03-08T01:36:27.161Z,19.10
2023-03-08T01:38:53.760Z,22.58
2023-03-08T01:41:26.931Z,22.10
2023-03-08T01:43:54.517Z,20.40
2023-03-08T01:46:35.781Z,20.98
2023-03-08T01:49:25.873Z,20.17
2023-03-08T01:52:14.126Z,23.25
2023-03-08T01:54:47.061Z,23.90
2023-03-08T01:57:28.070Z,22.40
2023-03-08T01:59:58.471Z,22.05
2023-03-08T02:02:29.670Z,22.27
2023-03-08T02:04:56.642Z,23.38
2023-03-08T02:07:24.112Z,22.35
2023-03-08T02:09:50.990Z,26.10
2023-03-08T02:12:17.743Z,22.05
2023-03-08T02:14:45.158Z,23.90
2023-03-08T02:17:12.449Z,22.65
2023-03-08T02:19:48.404Z,23.02
2023-03-08T02:22:16.904Z,24.23
2023-03-08T02:24:43.640Z,22.38
2023-03-08T02:27:25.949Z,22.85
2023-03-08T02:29:54.180Z,27.67
2023-03-08T02:32:23.109Z,23.15
2023-03-08T02:34:49.883Z,22.92
2023-03-08T02:37:16.263Z,26.02
2023-03-08T02:39:42.656Z,23.45
2023-03-08T02:42:09.056Z,22.13
2023-03-08T02:44:35.463Z,24.23
2023-03-08T02:47:01.987Z,23.02
2023-03-08T02:49:28.396Z,23.13
2023-03-08T02:51:54.819Z,25.35
2023-03-08T02:54:21.264Z,24.83
2023-03-08T02:56:47.611Z,22.63
2023-03-08T02:59:14.242Z,23.58
2023-03-08T03:01:43.379Z,23.90
2023-03-08T03:04:09.834Z,22.88
2023-03-08T03:06:36.567Z,23.63
2023-03-08T03:09:09.679Z,23.90
2023-03-08T03:11:37.061Z,24.05
2023-03-08T03:14:03.807Z,23.42
2023-03-08T03:16:36.678Z,22.27
2023-03-08T03:19:03.707Z,20.88
2023-03-08T03:21:30.587Z,24.08
2023-03-08T03:23:58.529Z,22.30
2023-03-08T03:26:33.137Z,21.25
2023-03-08T03:29:00.156Z,23.00
2023-03-08T03:31:31.587Z,24.25
2023-03-08T03:33:58.710Z,22.45
2023-03-08T03:36:26.908Z,21.42
2023-03-08T03:38:53.320Z,24.05
2023-03-08T03:41:23.089Z,20.13
2023-03-08T03:43:58.891Z,21.88
2023-03-08T03:46:25.474Z,19.45
2023-03-08T03:48:54.466Z,22.60
2023-03-08T03:51:23.256Z,18.67
2023-03-08T03:53:58.453Z,18.90
2023-03-08T03:56:27.735Z,19.13
2023-03-08T03:58:58.347Z,17.38
2023-03-08T04:01:30.290Z,17.13
2023-03-08T04:04:15.005Z,17.80
2023-03-08T04:06:43.905Z,15.68
2023-03-08T04:09:16.396Z,18.20
2023-03-08T04:11:45.814Z,18.35
2023-03-08T04:14:17.254Z,16.85
2023-03-08T04:16:43.870Z,16.17
2023-03-08T04:19:18.499Z,16.50
2023-03-08T04:21:51.154Z,20.83
2023-03-08T04:24:19.893Z,20.08
2023-03-08T04:26:50.078Z,15.48
2023-03-08T04:29:19.263Z,16.20
2023-03-08T04:31:46.098Z,16.85
2023-03-08T04:34:16.068Z,17.30
2023-03-08T04:36:45.863Z,17.75
2023-03-08T04:39:12.975Z,17.83
2023-03-08T04:41:39.455Z,17.20
2023-03-08T04:44:20.006Z,18.17
2023-03-08T04:46:50.201Z,19.23
2023-03-08T04:51:54.505Z,19.45
2023-03-08T04:54:22.422Z,21.90
2023-03-08T04:56:55.011Z,25.52
2023-03-08T04:59:24.255Z,24.17
2023-03-08T05:01:52.927Z,30.70
2023-03-08T05:04:20.819Z,33.95
2023-03-08T05:06:47.202Z,31.08
2023-03-08T05:09:19.147Z,33.50
2023-03-08T05:11:49.032Z,32.63
2023-03-08T05:14:16.131Z,35.03
2023-03-08T05:16:43.132Z,35.70
2023-03-08T05:19:10.448Z,35.65
2023-03-08T05:21:44.470Z,33.92
2023-03-08T05:24:11.054Z,36.67
2023-03-08T05:26:39.126Z,36.85
2023-03-08T05:29:06.700Z,38.13
2023-03-08T05:31:36.454Z,39.20
2023-03-08T05:34:04.854Z,41.13
2023-03-08T05:36:36.540Z,36.42
2023-03-08T05:39:04.368Z,41.67
2023-03-08T05:41:37.999Z,37.78
2023-03-08T05:44:05.456Z,38.42
2023-03-08T05:46:34.200Z,39.50
2023-03-08T05:49:02.221Z,40.03
2023-03-08T05:51:32.886Z,36.92
2023-03-08T05:54:00.199Z,38.25
2023-03-08T05:56:27.137Z,39.72
2023-03-08T05:59:01.160Z,40.75
2023-03-08T06:01:28.988Z,49.20
2023-03-08T06:04:03.153Z,40.95
2023-03-08T06:06:34.986Z,38.03
2023-03-08T06:09:04.151Z,39.42
2023-03-08T06:11:32.399Z,36.67
2023-03-08T06:13:59.981Z,40.63
2023-03-08T06:16:29.948Z,43.33
2023-03-08T06:18:56.567Z,38.22
2023-03-08T06:21:24.289Z,37.55
2023-03-08T06:23:57.846Z,38.67
2023-03-08T06:26:24.284Z,35.75
2023-03-08T06:28:51.108Z,32.90
2023-03-08T06:31:18.783Z,34.58
2023-03-08T06:33:45.852Z,32.58
2023-03-08T06:36:19.697Z,29.25
2023-03-08T06:38:47.809Z,28.05
2023-03-08T06:41:16.593Z,25.52
2023-03-08T06:43:45.667Z,24.95
2023-03-08T06:46:16.768Z,26.80
2023-03-08T06:48:43.840Z,23.27
2023-03-08T06:51:10.340Z,22.40
2023-03-08T06:53:39.446Z,17.08
2023-03-08T06:56:09.693Z,16.17
2023-03-08T06:58:37.113Z,16.60
2023-03-08T07:01:05.521Z,20.65
2023-03-08T07:03:33.058Z,17.83
2023-03-08T07:06:01.199Z,16.90
2023-03-08T07:08:27.720Z,13.88
2023-03-08T07:10:54.209Z,15.65
2023-03-08T07:13:23.426Z,17.17
2023-03-08T07:15:51.017Z,15.32
2023-03-08T07:18:17.943Z,12.70
2023-03-08T07:20:45.227Z,11.63
2023-03-08T07:23:11.831Z,16.52
2023-03-08T07:25:42.026Z,14.13
2023-03-08T07:28:08.418Z,13.18
2023-03-08T07:30:34.845Z,15.90
2023-03-08T07:33:01.468Z,14.77
2023-03-08T07:35:28.002Z,13.48
2023-03-08T07:37:54.401Z,12.65
2023-03-08T07:40:21.123Z,12.02
2023-03-08T07:42:47.657Z,13.63
2023-03-08T07:45:27.269Z,13.68
2023-03-08T07:47:53.626Z,10.57
2023-03-08T07:50:21.301Z,12.35
2023-03-08T07:52:48.703Z,13.07
2023-03-08T07:55:15.579Z,11.85
2023-03-08T07:57:41.982Z,13.25
2023-03-08T08:00:09.099Z,11.80
2023-03-08T08:02:41.294Z,10.68
2023-03-08T08:05:08.150Z,15.00
2023-03-08T08:07:34.589Z,12.73
2023-03-08T08:10:00.964Z,12.00
2023-03-08T08:12:27.392Z,11.48
2023-03-08T08:14:53.953Z,11.10
2023-03-08T08:17:21.134Z,11.60
2023-03-08T08:19:48.685Z,10.43
2023-03-08T08:22:15.195Z,8.82
2023-03-08T08:24:41.652Z,8.88
2023-03-08T08:27:08.048Z,11.73
2023-03-08T08:29:34.467Z,10.52
2023-03-08T08:32:02.193Z,8.45
2023-03-08T08:34:28.614Z,9.38
2023-03-08T08:36:55.059Z,10.77
2023-03-08T08:39:21.443Z,7.93
2023-03-08T08:41:49.675Z,6.97
2023-03-08T08:44:16.143Z,6.47
2023-03-08T08:46:42.553Z,7.25
2023-03-08T08:49:10.327Z,5.95
2023-03-08T08:51:36.715Z,7.43
2023-03-08T08:54:03.813Z,6.70
2023-03-08T08:56:30.369Z,5.88
2023-03-08T08:59:01.299Z,7.80
2023-03-08T09:01:31.256Z,8.00
2023-03-08T09:03:59.186Z,8.63
2023-03-08T09:06:26.507Z,9.18
2023-03-08T09:08:55.692Z,10.32
2023-03-08T09:11:23.522Z,10.82
2023-03-08T09:13:50.570Z,7.55
2023-03-08T09:16:22.761Z,6.90
2023-03-08T09:18:49.538Z,7.88
2023-03-08T09:21:16.887Z,7.15
2023-03-08T09:23:43.907Z,5.72
2023-03-08T09:26:11.394Z,9.32
2023-03-08T09:28:37.777Z,7.50
2023-03-08T09:31:12.603Z,7.50
2023-03-08T09:33:41.581Z,8.05
2023-03-08T09:36:08.727Z,13.85
2023-03-08T09:38:36.467Z,13.02
2023-03-08T09:41:21.590Z,10.55
2023-03-08T09:43:56.872Z,12.30
2023-03-08T09:46:30.514Z,9.07
2023-03-08T09:51:34.032Z,9.48
2023-03-08T09:54:06.908Z,10.65
2023-03-08T09:56:39.087Z,11.02
2023-03-08T09:59:24.467Z,9.65
2023-03-08T10:01:59.781Z,10.00
2023-03-08T10:05:12.376Z,9.73
2023-03-08T10:07:53.439Z,9.13
2023-03-08T10:10:49.235Z,8.15
2023-03-08T10:13:27.734Z,8.18
2023-03-08T10:16:35.489Z,9.70
2023-03-08T10:19:27.021Z,9.27
2023-03-08T10:21:56.043Z,9.43
2023-03-08T10:24:39.480Z,9.27
2023-03-08T10:27:31.393Z,12.98
2023-03-08T10:30:01.005Z,12.35
2023-03-08T10:32:28.915Z,10.63
2023-03-08T10:35:04.909Z,10.32
2023-03-08T10:37:33.483Z,11.27
2023-03-08T10:40:05.331Z,11.80
2023-03-08T10:42:33.291Z,11.68
2023-03-08T10:45:02.920Z,11.75
2023-03-08T10:47:36.214Z,10.45
2023-03-08T10:50:08.478Z,12.10
2023-03-08T10:52:35.397Z,11.15
2023-03-08T10:55:23.423Z,12.13
2023-03-08T10:58:01.793Z,12.40
2023-03-08T11:00:34.576Z,10.68
2023-03-08T11:03:16.826Z,9.48
2023-03-08T11:05:53.969Z,9.77
2023-03-08T11:08:25.145Z,9.43
2023-03-08T11:11:09.897Z,9.85
2023-03-08T11:13:46.671Z,8.98
2023-03-08T11:16:44.067Z,10.18
2023-03-08T11:19:22.733Z,12.02
2023-03-08T11:22:03.709Z,10.07
2023-03-08T11:24:39.884Z,10.77
2023-03-08T11:27:26.728Z,13.15
2023-03-08T11:30:05.168Z,12.23
2023-03-08T11:33:03.149Z,11.27
2023-03-08T11:35:44.393Z,11.15
2023-03-08T11:38:17.711Z,11.57
2023-03-08T11:43:24.859Z,9.38
2023-03-08T11:46:05.381Z,11.07
2023-03-08T11:48:56.878Z,12.63
2023-03-08T11:51:38.207Z,9.98
2023-03-08T11:54:34.901Z,9.45
2023-03-08T11:57:05.267Z,8.90
2023-03-08T11:59:39.806Z,9.10
2023-03-08T12:02:06.105Z,9.82
2023-03-08T12:05:07.233Z,9.73
2023-03-08T12:07:45.678Z,10.52
2023-03-08T12:10:18.150Z,11.90
2023-03-08T12:12:54.648Z,11.03
2023-03-08T12:15:29.796Z,11.30
2023-03-08T12:18:04.897Z,12.23
2023-03-08T12:20:36.441Z,12.95
2023-03-08T12:23:27.536Z,13.20
2023-03-08T12:26:19.278Z,14.00
2023-03-08T12:28:56.506Z,14.48
2023-03-08T12:31:29.351Z,12.18
2023-03-08T12:33:58.361Z,12.05
2023-03-08T12:36:44.312Z,8.98
2023-03-08T12:39:34.680Z,11.75
2023-03-08T12:42:10.189Z,13.00
2023-03-08T12:44:37.989Z,12.05
2023-03-08T12:47:13.660Z,10.70
2023-03-08T12:49:42.883Z,13.35
2023-03-08T12:52:18.149Z,11.65
2023-03-08T12:54:59.061Z,11.73
2023-03-08T12:57:30.328Z,13.00
2023-03-08T13:00:00.377Z,10.82
2023-03-08T13:02:31.355Z,10.35
2023-03-08T13:05:19.417Z,12.05
2023-03-08T13:08:01.544Z,13.23
2023-03-08T13:10:35.309Z,15.98
2023-03-08T13:13:20.456Z,13.50
2023-03-08T13:16:06.777Z,14.25
2023-03-08T13:18:33.262Z,15.32
2023-03-08T13:21:35.476Z,18.63
2023-03-08T13:24:15.746Z,18.80
2023-03-08T13:27:21.316Z,21.25
2023-03-08T13:29:48.197Z,24.92
2023-03-08T13:32:20.382Z,24.05
2023-03-08T13:35:03.647Z,24.67
2023-03-08T13:37:31.978Z,25.85
2023-03-08T13:40:00.041Z,27.70
2023-03-08T13:42:28.603Z,27.55
2023-03-08T13:45:09.652Z,27.08
2023-03-08T13:47:39.408Z,27.83
2023-03-08T13:50:06.311Z,31.15
2023-03-08T13:52:36.202Z,28.88
2023-03-08T13:55:06.175Z,30.25
2023-03-08T13:57:36.555Z,32.17
2023-03-08T14:00:27.050Z,33.00
2023-03-08T14:02:53.833Z,32.33
2023-03-08T14:05:43.815Z,37.55
2023-03-08T14:08:21.809Z,34.95
2023-03-08T14:10:52.306Z,36.58
2023-03-08T14:13:34.119Z,35.53
2023-03-08T14:16:05.401Z,34.05
2023-03-08T14:18:34.147Z,35.65
2023-03-08T14:21:17.511Z,36.95
2023-03-08T14:23:53.530Z,36.38
2023-03-08T14:26:38.066Z,34.47
2023-03-08T14:29:21.669Z,36.45
2023-03-08T14:34:22.178Z,37.80
2023-03-08T14:36:55.564Z,35.45
2023-03-08T14:41:49.646Z,33.58
2023-03-08T14:44:25.555Z,33.60
2023-03-08T14:46:58.368Z,32.65
2023-03-08T14:49:28.390Z,33.35
2023-03-08T14:51:55.544Z,29.10
2023-03-08T14:54:34.232Z,32.28
2023-03-08T14:57:15.941Z,31.77
2023-03-08T14:59:43.239Z,28.42
2023-03-08T15:02:12.640Z,26.73
2023-03-08T15:04:39.946Z,28.75
2023-03-08T15:07:06.795Z,29.08
2023-03-08T15:09:33.546Z,31.15
2023-03-08T15:12:01.418Z,30.90
2023-03-08T15:14:28.753Z,30.90
2023-03-08T15:16:55.226Z,33.30
2023-03-08T15:19:21.708Z,31.50
2023-03-08T15:21:48.537Z,29.65
2023-03-08T15:24:17.486Z,32.10
2023-03-08T15:26:44.979Z,31.20
2023-03-08T15:29:28.580Z,34.17
2023-03-08T15:34:22.737Z,31.30
2023-03-08T15:36:50.184Z,32.90
2023-03-08T15:39:17.606Z,34.55
2023-03-08T15:41:44.076Z,31.65
2023-03-08T15:44:10.803Z,35.45
2023-03-08T15:46:37.337Z,32.65
2023-03-08T15:49:04.391Z,35.10
2023-03-08T15:51:34.667Z,30.50
2023-03-08T15:54:01.982Z,31.75
2023-03-08T15:56:28.404Z,32.03
2023-03-08T15:58:55.483Z,32.03
2023-03-08T16:01:24.264Z,30.25
2023-03-08T16:03:55.618Z,34.55
2023-03-08T16:06:24.849Z,33.15
2023-03-08T16:08:51.295Z,36.78
2023-03-08T16:11:22.060Z,33.25
2023-03-08T16:13:52.658Z,35.35
2023-03-08T16:16:20.444Z,36.75
2023-03-08T16:18:46.973Z,38.90
2023-03-08T16:21:13.420Z,38.83
2023-03-08T16:23:41.593Z,46.88
2023-03-08T16:26:16.824Z,43.35
2023-03-08T16:28:46.504Z,44.75
2023-03-08T16:31:14.223Z,45.10
2023-03-08T16:33:40.735Z,49.45
2023-03-08T16:36:07.719Z,51.33
2023-03-08T16:38:34.246Z,51.13
2023-03-08T16:41:12.168Z,56.17
2023-03-08T16:43:46.824Z,52.20
2023-03-08T16:46:16.517Z,53.63
2023-03-08T16:48:43.411Z,49.22
2023-03-08T16:51:14.164Z,50.95
2023-03-08T16:53:40.657Z,52.40
2023-03-08T16:56:07.441Z,46.25
2023-03-08T16:58:33.898Z,46.15
2023-03-08T17:01:00.311Z,42.03
2023-03-08T17:03:26.774Z,41.00
2023-03-08T17:05:53.224Z,40.55
2023-03-08T17:08:19.605Z,41.80
2023-03-08T17:10:46.002Z,39.75
2023-03-08T17:13:12.445Z,41.22
2023-03-08T17:15:42.976Z,41.97
2023-03-08T17:18:10.348Z,38.80
2023-03-08T17:20:41.686Z,40.70
2023-03-08T17:23:10.261Z,40.47
2023-03-08T17:25:40.876Z,41.42
2023-03-08T17:28:08.335Z,39.85
2023-03-08T17:30:35.770Z,39.15
2023-03-08T17:33:02.125Z,43.00
2023-03-08T17:35:28.564Z,39.17
2023-03-08T17:37:54.971Z,40.92
2023-03-08T17:40:21.625Z,39.63
2023-03-08T17:42:48.084Z,40.90
2023-03-08T17:45:15.797Z,39.42
2023-03-08T17:47:42.701Z,38.47
2023-03-08T17:50:12.835Z,38.08
2023-03-08T17:52:40.195Z,34.85
2023-03-08T17:55:06.823Z,36.13
2023-03-08T17:57:35.496Z,34.03
2023-03-08T18:00:01.993Z,32.58
2023-03-08T18:02:30.464Z,33.03
2023-03-08T18:04:56.905Z,33.58
2023-03-08T18:07:27.510Z,32.88
2023-03-08T18:09:53.893Z,32.90
2023-03-08T18:12:20.694Z,33.65
2023-03-08T18:14:50.556Z,33.08
2023-03-08T18:17:17.281Z,34.25
2023-03-08T18:19:43.672Z,34.22
2023-03-08T18:22:10.156Z,30.25
2023-03-08T18:24:36.514Z,32.92
2023-03-08T18:27:05.357Z,33.65
2023-03-08T18:29:33.823Z,32.58
2023-03-08T18:32:00.503Z,33.10
2023-03-08T18:34:27.696Z,32.75
2023-03-08T18:36:58.721Z,32.15
2023-03-08T18:39:26.994Z,34.20
2023-03-08T18:41:56.625Z,34.80
2023-03-08T18:44:24.556Z,32.15
2023-03-08T18:46:51.011Z,36.03
2023-03-08T18:49:17.902Z,34.78
2023-03-08T18:51:44.557Z,35.65
2023-03-08T18:54:13.953Z,35.90
2023-03-08T18:56:40.761Z,38.10
2023-03-08T18:59:07.564Z,36.97
2023-03-08T19:01:34.164Z,38.70
2023-03-08T19:04:03.919Z,38.38
2023-03-08T19:06:30.305Z,41.38
2023-03-08T19:08:56.990Z,40.22
2023-03-08T19:11:25.737Z,39.92
2023-03-08T19:13:52.858Z,37.00
2023-03-08T19:16:23.318Z,40.45
2023-03-08T19:18:52.311Z,40.63
2023-03-08T19:21:22.308Z,39.05
2023-03-08T19:23:48.870Z,41.35
2023-03-08T19:26:36.121Z,38.92
2023-03-08T19:29:08.839Z,41.13
2023-03-08T19:31:42.024Z,42.15
2023-03-08T19:34:10.222Z,42.60
2023-03-08T19:36:37.801Z,47.42
2023-03-08T19:39:07.000Z,45.67
2023-03-08T19:41:33.674Z,45.83
2023-03-08T19:44:00.913Z,50.40
2023-03-08T19:46:27.339Z,50.92
2023-03-08T19:48:54.684Z,51.70
2023-03-08T19:51:21.340Z,50.97
2023-03-08T19:53:47.806Z,51.28
2023-03-08T19:56:17.260Z,53.47
2023-03-08T19:58:44.391Z,50.92
2023-03-08T20:01:12.959Z,49.45
2023-03-08T20:03:39.435Z,54.47
2023-03-08T20:06:06.338Z,50.50
2023-03-08T20:08:33.970Z,49.92
2023-03-08T20:11:00.368Z,51.63
2023-03-08T20:13:27.932Z,53.05
2023-03-08T20:15:55.206Z,49.80
2023-03-08T20:18:21.723Z,51.60
2023-03-08T20:20:48.198Z,57.33
2023-03-08T20:23:14.553Z,54.28
2023-03-08T20:25:43.606Z,53.25
2023-03-08T20:28:10.464Z,55.30
2023-03-08T20:30:38.270Z,52.15
2023-03-08T20:33:05.199Z,53.50
2023-03-08T20:35:31.664Z,52.25
2023-03-08T20:37:58.216Z,54.88
2023-03-08T20:40:24.593Z,52.72
2023-03-08T20:42:51.017Z,55.92
2023-03-08T20:45:17.928Z,55.92
2023-03-08T20:47:44.386Z,55.35
2023-03-08T20:50:11.518Z,57.13
2023-03-08T20:52:38.058Z,57.60
2023-03-08T20:55:04.879Z,52.40
2023-03-08T20:57:31.328Z,53.72
2023-03-08T20:59:57.693Z,58.13
2023-03-08T21:02:24.089Z,59.22
2023-03-08T21:04:50.525Z,57.13
2023-03-08T21:07:16.937Z,55.53
2023-03-08T21:09:44.458Z,57.83
2023-03-08T21:12:11.161Z,58.38
2023-03-08T21:14:37.548Z,59.13
2023-03-08T21:17:03.927Z,59.88
2023-03-08T21:19:30.301Z,61.00
2023-03-08T21:21:56.702Z,61.17
2023-03-08T21:24:23.126Z,62.88
2023-03-08T21:26:50.358Z,64.53
2023-03-08T21:29:18.928Z,62.97
2023-03-08T21:31:48.876Z,66.05
2023-03-08T21:34:16.136Z,64.57
2023-03-08T21:36:42.868Z,71.15
2023-03-08T21:39:09.560Z,66.55
2023-03-08T21:41:38.005Z,73.22
2023-03-08T21:44:09.159Z,69.00
2023-03-08T21:46:37.009Z,68.35
2023-03-08T21:49:03.938Z,68.25
2023-03-08T21:51:30.377Z,68.60
2023-03-08T21:53:57.925Z,67.75
2023-03-08T21:56:24.701Z,65.57
2023-03-08T21:58:51.129Z,67.72
2023-03-08T22:01:20.366Z,65.18
2023-03-08T22:03:47.122Z,62.17
2023-03-08T22:06:13.529Z,64.07
2023-03-08T22:08:40.042Z,59.95
2023-03-08T22:11:06.419Z,61.22
2023-03-08T22:13:33.191Z,62.50
2023-03-08T22:15:59.672Z,58.17
2023-03-08T22:18:26.361Z,58.55
2023-03-08T22:20:55.908Z,58.97
2023-03-08T22:23:22.511Z,56.80
2023-03-08T22:25:48.949Z,54.97
2023-03-08T22:28:15.397Z,54.92
2023-03-08T22:30:42.205Z,58.83
2023-03-08T22:33:08.831Z,51.50
2023-03-08T22:35:35.519Z,52.30
2023-03-08T22:38:02.020Z,56.85
2023-03-08T22:40:28.411Z,56.65
2023-03-08T22:42:54.808Z,59.65
2023-03-08T22:45:21.661Z,55.97
2023-03-08T22:47:48.166Z,55.65
2023-03-08T22:50:14.534Z,60.38
2023-03-08T22:52:40.904Z,58.25
2023-03-08T22:55:07.699Z,61.97
2023-03-08T22:57:36.857Z,59.00
2023-03-08T23:00:14.043Z,57.83
2023-03-08T23:02:45.709Z,63.22
2023-03-08T23:05:17.136Z,58.75
2023-03-08T23:07:43.572Z,55.13
2023-03-08T23:10:11.120Z,64.43
2023-03-08T23:12:37.597Z,59.22
2023-03-08T23:15:05.748Z,55.05
2023-03-08T23:17:32.193Z,52.63
2023-03-08T23:19:59.104Z,54.85
2023-03-08T23:22:25.569Z,57.38
2023-03-08T23:24:52.061Z,53.92
2023-03-08T23:27:18.614Z,51.70
2023-03-08T23:29:45.046Z,53.15
2023-03-08T23:32:11.539Z,52.33
2023-03-08T23:34:38.084Z,52.80
2023-03-08T23:37:04.598Z,56.95
2023-03-08T23:39:32.301Z,52.65
2023-03-08T23:41:58.743Z,55.28
2023-03-08T23:44:25.351Z,57.78
2023-03-08T23:46:52.262Z,54.65
2023-03-08T23:49:18.994Z,53.08
2023-03-08T23:51:45.428Z,52.42
2023-03-08T23:54:12.144Z,56.58
2023-03-08T23:56:40.057Z,55.10
2023-03-08T23:59:21.202Z,51.88
